createdAt,value
2022-10-18T00:00:01.577Z,15.1
2022-10-18T00:01:01.156Z,15.1
2022-10-18T00:02:00.758Z,15
2022-10-18T00:03:01.339Z,15
2022-10-18T00:04:00.916Z,15
2022-10-18T00:05:01.507Z,14.9
2022-10-18T00:06:01.081Z,15
2022-10-18T00:07:01.654Z,15
2022-10-18T00:08:01.235Z,15
2022-10-18T00:09:00.810Z,15.1
2022-10-18T00:10:01.404Z,15
2022-10-18T00:11:00.981Z,15.1
2022-10-18T00:12:01.554Z,15.1
2022-10-18T00:13:01.127Z,15.1
2022-10-18T00:14:01.701Z,15.1
2022-10-18T00:15:01.304Z,15.1
2022-10-18T00:16:01.048Z,15.1
2022-10-18T00:17:01.455Z,15
2022-10-18T00:18:01.070Z,15
2022-10-18T00:19:01.638Z,15.1
2022-10-18T00:20:01.235Z,15.1
2022-10-18T00:21:00.801Z,15.1
2022-10-18T00:22:01.374Z,15.1
2022-10-18T00:23:00.947Z,15.1
2022-10-18T00:24:01.522Z,15.1
2022-10-18T00:25:01.114Z,15.1
2022-10-18T00:26:01.691Z,15.1
2022-10-18T00:27:01.263Z,15.1
2022-10-18T00:28:00.834Z,15.1
2022-10-18T00:29:01.463Z,15.1
2022-10-18T00:30:01.067Z,15
2022-10-18T00:31:01.670Z,15.1
2022-10-18T00:32:01.248Z,15.1
2022-10-18T00:33:00.820Z,15.1
2022-10-18T00:34:01.393Z,15.1
2022-10-18T00:35:00.990Z,15.1
2022-10-18T00:36:01.555Z,15.1
2022-10-18T00:37:01.147Z,15.1
2022-10-18T00:38:01.707Z,15.1
2022-10-18T00:39:01.280Z,15.1
2022-10-18T00:40:00.861Z,15
2022-10-18T00:41:01.432Z,15
2022-10-18T00:42:01.024Z,15
2022-10-18T00:43:01.590Z,15
2022-10-18T00:44:01.163Z,15
2022-10-18T00:45:01.738Z,15
2022-10-18T00:46:01.309Z,15
2022-10-18T00:47:00.895Z,15
2022-10-18T00:48:01.467Z,15
2022-10-18T00:49:01.039Z,15
2022-10-18T00:50:01.617Z,15
2022-10-18T00:51:01.224Z,15
2022-10-18T00:52:00.799Z,15
2022-10-18T00:53:01.368Z,15
2022-10-18T00:54:00.939Z,15
2022-10-18T00:55:01.521Z,15
2022-10-18T00:56:01.111Z,15
2022-10-18T00:57:00.783Z,14.9
2022-10-18T00:58:01.276Z,14.9
2022-10-18T00:59:00.853Z,15
2022-10-18T01:00:01.423Z,14.9
2022-10-18T01:01:00.997Z,15
2022-10-18T01:02:01.627Z,15
2022-10-18T01:03:01.248Z,15
2022-10-18T01:04:00.812Z,15.1
2022-10-18T01:05:01.383Z,15.1
2022-10-18T01:06:00.954Z,15.1
2022-10-18T01:07:01.564Z,15.1
2022-10-18T01:08:01.165Z,15.2
2022-10-18T01:09:01.750Z,15.1
2022-10-18T01:10:01.322Z,15.1
2022-10-18T01:11:00.904Z,15.1
2022-10-18T01:12:01.474Z,15.1
2022-10-18T01:13:01.044Z,15.1
2022-10-18T01:14:01.648Z,15.1
2022-10-18T01:15:01.222Z,15.1
2022-10-18T01:16:00.803Z,15
2022-10-18T01:17:01.380Z,15
2022-10-18T01:18:00.971Z,15
2022-10-18T01:19:01.548Z,15
2022-10-18T01:20:01.126Z,15.1
2022-10-18T01:21:01.701Z,15.1
2022-10-18T01:22:01.273Z,15.1
2022-10-18T01:23:00.873Z,15.1
2022-10-18T01:24:01.454Z,15.1
2022-10-18T01:26:01.594Z,15.1
2022-10-18T01:27:01.164Z,15.1
2022-10-18T01:28:01.737Z,15.1
2022-10-18T01:29:01.408Z,15
2022-10-18T01:30:00.977Z,15
2022-10-18T01:31:01.557Z,15
2022-10-18T01:32:01.127Z,14.9
2022-10-18T01:33:01.699Z,14.9
2022-10-18T01:35:00.947Z,14.9
2022-10-18T01:36:01.536Z,14.9
2022-10-18T01:37:01.149Z,14.9
2022-10-18T01:38:01.727Z,14.9
2022-10-18T01:39:01.357Z,14.9
2022-10-18T01:40:00.930Z,14.9
2022-10-18T01:41:01.522Z,15
2022-10-18T01:42:01.097Z,14.9
2022-10-18T01:43:01.720Z,14.9
2022-10-18T01:44:01.362Z,14.9
2022-10-18T01:45:00.907Z,14.9
2022-10-18T01:46:01.479Z,14.9
2022-10-18T01:47:01.049Z,14.9
2022-10-18T01:48:01.622Z,14.9
2022-10-18T01:49:01.210Z,14.9
2022-10-18T01:50:00.767Z,14.8
2022-10-18T01:51:01.362Z,14.9
2022-10-18T01:52:01.038Z,14.9
2022-10-18T01:53:01.519Z,14.9
2022-10-18T01:54:01.095Z,14.9
2022-10-18T01:55:01.713Z,14.9
2022-10-18T01:56:01.303Z,14.9
2022-10-18T01:57:00.878Z,14.9
2022-10-18T01:58:01.537Z,14.9
2022-10-18T01:59:01.100Z,14.9
2022-10-18T02:00:01.680Z,14.9
2022-10-18T02:01:01.334Z,15
2022-10-18T02:02:00.907Z,14.9
2022-10-18T02:03:01.479Z,14.9
2022-10-18T02:04:01.051Z,14.9
2022-10-18T02:05:01.647Z,14.9
2022-10-18T02:06:01.223Z,15
2022-10-18T02:07:00.795Z,14.9
2022-10-18T02:08:11.938Z,14.9
2022-10-18T02:09:00.907Z,15
2022-10-18T02:10:01.528Z,14.9
2022-10-18T02:11:01.162Z,15
2022-10-18T02:12:01.728Z,15
2022-10-18T02:13:01.300Z,15
2022-10-18T02:14:00.872Z,15
2022-10-18T02:15:01.462Z,15
2022-10-18T02:16:01.033Z,15
2022-10-18T02:17:01.607Z,14.9
2022-10-18T02:18:01.182Z,14.9
2022-10-18T02:19:00.770Z,14.9
2022-10-18T02:20:01.328Z,14.9
2022-10-18T02:21:00.900Z,14.8
2022-10-18T02:22:01.474Z,14.8
2022-10-18T02:23:01.062Z,14.9
2022-10-18T02:24:01.633Z,14.9
2022-10-18T02:25:01.206Z,14.9
2022-10-18T02:26:00.776Z,14.9
2022-10-18T02:27:01.382Z,14.8
2022-10-18T02:28:00.990Z,14.9
2022-10-18T02:29:01.554Z,14.8
2022-10-18T02:30:01.139Z,14.8
2022-10-18T02:31:01.724Z,14.9
2022-10-18T02:32:01.306Z,14.9
2022-10-18T02:33:00.897Z,14.9
2022-10-18T02:34:01.464Z,14.9
2022-10-18T02:35:01.043Z,14.9
2022-10-18T02:36:01.618Z,14.9
2022-10-18T02:37:01.194Z,14.9
2022-10-18T02:38:00.783Z,14.9
2022-10-18T02:39:01.349Z,14.9
2022-10-18T02:40:00.921Z,14.9
2022-10-18T02:41:01.496Z,14.9
2022-10-18T02:42:01.067Z,14.9
2022-10-18T02:43:01.686Z,14.9
2022-10-18T02:44:01.278Z,14.9
2022-10-18T02:45:00.833Z,14.9
2022-10-18T02:46:01.407Z,14.9
2022-10-18T02:47:00.980Z,14.9
2022-10-18T02:48:01.568Z,14.9
2022-10-18T02:49:01.158Z,14.9
2022-10-18T02:50:01.718Z,14.9
2022-10-18T02:51:01.296Z,14.9
2022-10-18T02:52:00.867Z,14.9
2022-10-18T02:53:01.451Z,14.9
2022-10-18T02:54:01.043Z,14.9
2022-10-18T02:55:01.599Z,14.9
2022-10-18T02:56:01.172Z,14.9
2022-10-18T02:57:01.745Z,14.9
2022-10-18T02:58:01.414Z,14.9
2022-10-18T02:59:01.020Z,14.9
2022-10-18T03:00:01.564Z,14.9
2022-10-18T03:01:01.137Z,14.8
2022-10-18T03:02:01.709Z,14.9
2022-10-18T03:03:01.279Z,14.9
2022-10-18T03:04:00.874Z,14.9
2022-10-18T03:05:01.432Z,14.9
2022-10-18T03:06:01.024Z,14.9
2022-10-18T03:07:01.590Z,14.9
2022-10-18T03:08:01.161Z,14.8
2022-10-18T03:09:01.733Z,14.8
2022-10-18T03:10:01.322Z,14.8
2022-10-18T03:11:00.892Z,14.7
2022-10-18T03:12:01.464Z,14.8
2022-10-18T03:13:01.036Z,14.8
2022-10-18T03:14:01.606Z,14.8
2022-10-18T03:15:01.222Z,14.8
2022-10-18T03:16:00.781Z,14.8
2022-10-18T03:17:01.349Z,14.9
2022-10-18T03:18:00.922Z,14.9
2022-10-18T03:19:01.493Z,14.9
2022-10-18T03:20:01.066Z,14.9
2022-10-18T03:21:01.661Z,14.9
2022-10-18T03:22:01.236Z,14.8
2022-10-18T03:23:00.822Z,14.8
2022-10-18T03:24:01.393Z,14.8
2022-10-18T03:25:00.965Z,14.8
2022-10-18T03:26:01.555Z,14.8
2022-10-18T03:27:01.138Z,14.8
2022-10-18T03:28:01.709Z,14.9
2022-10-18T03:29:01.330Z,14.9
2022-10-18T03:30:00.934Z,14.8
2022-10-18T03:31:01.548Z,14.9
2022-10-18T03:32:01.121Z,14.9
2022-10-18T03:33:01.695Z,14.8
2022-10-18T03:34:01.269Z,14.9
2022-10-18T03:35:00.842Z,14.9
2022-10-18T03:36:01.437Z,14.9
2022-10-18T03:37:02.199Z,14.8
2022-10-18T03:38:01.551Z,14.9
2022-10-18T03:39:01.125Z,14.9
2022-10-18T03:40:01.698Z,15
2022-10-18T03:41:01.292Z,15
2022-10-18T03:42:00.864Z,15
2022-10-18T03:43:01.443Z,15
2022-10-18T03:44:01.015Z,15
2022-10-18T03:45:01.612Z,15
2022-10-18T03:46:01.205Z,14.9
2022-10-18T03:47:00.780Z,14.9
2022-10-18T03:48:01.338Z,15
2022-10-18T03:49:00.910Z,14.9
2022-10-18T03:50:01.484Z,14.9
2022-10-18T03:51:01.074Z,14.9
2022-10-18T03:52:01.644Z,14.9
2022-10-18T03:53:01.230Z,14.8
2022-10-18T03:54:00.798Z,14.8
2022-10-18T03:55:01.373Z,14.9
2022-10-18T03:56:00.963Z,14.8
2022-10-18T03:57:01.536Z,14.8
2022-10-18T03:58:01.109Z,14.8
2022-10-18T03:59:00.777Z,14.8
2022-10-18T04:00:01.259Z,14.8
2022-10-18T04:01:00.836Z,14.8
2022-10-18T04:02:01.449Z,14.9
2022-10-18T04:03:01.078Z,14.8
2022-10-18T04:04:01.640Z,14.8
2022-10-18T04:05:01.213Z,14.8
2022-10-18T04:06:00.784Z,14.8
2022-10-18T04:07:01.377Z,14.8
2022-10-18T04:08:00.967Z,14.7
2022-10-18T04:09:02.378Z,14.7
2022-10-18T04:10:01.059Z,14.7
2022-10-18T04:11:01.631Z,14.7
2022-10-18T04:12:01.203Z,14.7
2022-10-18T04:13:00.794Z,14.7
2022-10-18T04:14:01.353Z,14.7
2022-10-18T04:15:00.925Z,14.7
2022-10-18T04:16:01.498Z,14.7
2022-10-18T04:17:01.070Z,14.7
2022-10-18T04:18:01.657Z,14.7
2022-10-18T04:19:01.287Z,14.7
2022-10-18T04:20:00.805Z,14.7
2022-10-18T04:21:01.379Z,14.7
2022-10-18T04:22:00.953Z,14.7
2022-10-18T04:23:01.549Z,14.7
2022-10-18T04:24:01.145Z,14.7
2022-10-18T04:25:01.698Z,14.7
2022-10-18T04:26:01.276Z,14.7
2022-10-18T04:27:00.847Z,14.6
2022-10-18T04:28:01.418Z,14.6
2022-10-18T04:29:01.081Z,14.7
2022-10-18T04:30:01.580Z,14.6
2022-10-18T04:31:01.155Z,14.6
2022-10-18T04:32:01.729Z,14.6
2022-10-18T04:33:01.304Z,14.6
2022-10-18T04:34:00.894Z,14.7
2022-10-18T04:35:01.488Z,14.6
2022-10-18T04:36:01.064Z,14.7
2022-10-18T04:37:01.635Z,14.7
2022-10-18T04:38:01.207Z,14.8
2022-10-18T04:39:00.799Z,14.8
2022-10-18T04:40:01.362Z,14.8
2022-10-18T04:41:00.934Z,14.8
2022-10-18T04:42:01.506Z,14.8
2022-10-18T04:43:01.080Z,14.8
2022-10-18T04:44:01.678Z,14.9
2022-10-18T04:45:01.255Z,14.9
2022-10-18T04:46:00.842Z,14.9
2022-10-18T04:47:01.411Z,14.9
2022-10-18T04:48:00.986Z,14.9
2022-10-18T04:49:01.582Z,14.8
2022-10-18T04:50:01.157Z,14.9
2022-10-18T04:51:01.753Z,14.8
2022-10-18T04:52:01.329Z,14.9
2022-10-18T04:53:00.901Z,14.9
2022-10-18T04:54:01.496Z,14.9
2022-10-18T04:55:01.071Z,14.9
2022-10-18T04:56:01.644Z,14.9
2022-10-18T04:57:01.220Z,14.9
2022-10-18T04:58:00.789Z,14.8
2022-10-18T04:59:01.386Z,14.8
2022-10-18T05:00:01.047Z,14.7
2022-10-18T05:01:01.557Z,14.7
2022-10-18T05:02:01.196Z,14.7
2022-10-18T05:03:01.715Z,14.7
2022-10-18T05:04:01.332Z,14.7
2022-10-18T05:05:00.915Z,14.7
2022-10-18T05:06:02.663Z,14.8
2022-10-18T05:07:01.699Z,14.7
2022-10-18T05:08:01.271Z,14.7
2022-10-18T05:09:00.860Z,14.6
2022-10-18T05:10:01.450Z,14.6
2022-10-18T05:11:01.625Z,14.7
2022-10-18T05:12:01.199Z,14.7
2022-10-18T05:13:00.772Z,14.7
2022-10-18T05:14:01.360Z,14.7
2022-10-18T05:15:00.952Z,14.7
2022-10-18T05:16:01.505Z,14.8
2022-10-18T05:17:01.083Z,14.7
2022-10-18T05:18:01.654Z,14.8
2022-10-18T05:19:01.243Z,14.8
2022-10-18T05:20:00.834Z,14.8
2022-10-18T05:21:01.379Z,14.8
2022-10-18T05:22:00.967Z,14.8
2022-10-18T05:23:01.575Z,14.8
2022-10-18T05:24:01.148Z,14.7
2022-10-18T05:25:01.721Z,14.7
2022-10-18T05:26:01.326Z,14.7
2022-10-18T05:27:00.913Z,14.7
2022-10-18T05:28:03.450Z,14.7
2022-10-18T05:29:01.286Z,14.8
2022-10-18T05:30:02.978Z,14.8
2022-10-18T05:31:01.253Z,14.7
2022-10-18T05:32:00.842Z,14.8
2022-10-18T05:33:01.411Z,14.8
2022-10-18T05:34:00.986Z,14.8
2022-10-18T05:35:01.567Z,14.8
2022-10-18T05:36:01.160Z,14.8
2022-10-18T05:37:01.732Z,14.8
2022-10-18T05:38:01.303Z,14.7
2022-10-18T05:39:02.482Z,14.7
2022-10-18T05:40:01.428Z,14.7
2022-10-18T05:41:01.001Z,14.7
2022-10-18T05:42:01.592Z,14.7
2022-10-18T05:43:01.181Z,14.8
2022-10-18T05:44:01.751Z,14.7
2022-10-18T05:45:01.323Z,14.7
2022-10-18T05:46:00.896Z,14.7
2022-10-18T05:47:01.470Z,14.8
2022-10-18T05:48:01.064Z,14.8
2022-10-18T05:49:01.646Z,14.7
2022-10-18T05:50:01.225Z,14.7
2022-10-18T05:51:00.801Z,14.7
2022-10-18T05:52:01.373Z,14.8
2022-10-18T05:53:06.791Z,14.8
2022-10-18T05:54:01.521Z,14.8
2022-10-18T05:55:01.120Z,14.7
2022-10-18T05:56:01.690Z,14.7
2022-10-18T05:57:01.276Z,14.7
2022-10-18T05:58:00.868Z,14.7
2022-10-18T05:59:01.435Z,14.7
2022-10-18T06:00:01.047Z,14.8
2022-10-18T06:01:01.583Z,14.7
2022-10-18T06:02:01.156Z,14.8
2022-10-18T06:03:01.752Z,14.8
2022-10-18T06:04:01.326Z,14.8
2022-10-18T06:05:00.898Z,14.8
2022-10-18T06:06:01.472Z,14.8
2022-10-18T06:07:01.051Z,14.8
2022-10-18T06:08:03.239Z,14.8
2022-10-18T06:09:01.178Z,14.8
2022-10-18T06:10:01.752Z,14.9
2022-10-18T06:11:01.349Z,14.8
2022-10-18T06:12:00.923Z,14.8
2022-10-18T06:13:01.511Z,14.9
2022-10-18T06:14:01.104Z,14.9
2022-10-18T06:15:01.673Z,15
2022-10-18T06:16:01.248Z,15
2022-10-18T06:17:00.820Z,14.9
2022-10-18T06:18:01.395Z,14.9
2022-10-18T06:19:00.990Z,14.9
2022-10-18T06:20:01.542Z,14.9
2022-10-18T06:21:01.116Z,14.9
2022-10-18T06:22:01.691Z,14.9
2022-10-18T06:23:01.266Z,14.9
2022-10-18T06:24:00.854Z,14.9
2022-10-18T06:25:01.420Z,14.9
2022-10-18T06:26:00.994Z,14.9
2022-10-18T06:27:01.646Z,14.8
2022-10-18T06:28:01.221Z,14.9
2022-10-18T06:29:00.869Z,14.8
2022-10-18T06:30:01.376Z,14.9
2022-10-18T06:31:00.948Z,14.8
2022-10-18T06:32:01.522Z,14.8
2022-10-18T06:33:01.102Z,14.9
2022-10-18T06:34:01.696Z,14.8
2022-10-18T06:35:01.274Z,14.9
2022-10-18T06:36:00.847Z,14.8
2022-10-18T06:37:01.418Z,14.8
2022-10-18T06:38:00.992Z,14.8
2022-10-18T06:39:01.581Z,14.8
2022-10-18T06:40:01.152Z,14.8
2022-10-18T06:41:01.726Z,14.8
2022-10-18T06:42:01.296Z,14.9
2022-10-18T06:43:16.480Z,14.8
2022-10-18T06:44:01.421Z,14.9
2022-10-18T06:45:00.994Z,14.8
2022-10-18T06:46:01.581Z,14.8
2022-10-18T06:47:01.154Z,14.8
2022-10-18T06:48:01.727Z,14.8
2022-10-18T06:49:01.300Z,14.8
2022-10-18T06:50:00.875Z,14.8
2022-10-18T06:51:01.484Z,14.8
2022-10-18T06:52:01.055Z,14.8
2022-10-18T06:53:01.627Z,14.9
2022-10-18T06:54:16.690Z,14.9
2022-10-18T06:55:03.382Z,14.9
2022-10-18T06:56:01.296Z,14.9
2022-10-18T06:57:00.876Z,14.9
2022-10-18T06:58:01.448Z,14.9
2022-10-18T06:59:01.047Z,15
2022-10-18T07:00:01.589Z,14.9
2022-10-18T07:01:01.231Z,14.9
2022-10-18T07:02:01.903Z,15
2022-10-18T07:03:01.554Z,15.1
2022-10-18T07:04:00.969Z,15.1
2022-10-18T07:05:01.543Z,15
2022-10-18T07:06:01.124Z,15
2022-10-18T07:07:01.719Z,15
2022-10-18T07:08:01.289Z,15
2022-10-18T07:09:00.859Z,15
2022-10-18T07:10:01.430Z,15
2022-10-18T07:11:01.001Z,15
2022-10-18T07:12:01.590Z,15
2022-10-18T07:13:19.869Z,15.1
2022-10-18T07:14:01.695Z,15.1
2022-10-18T07:15:03.470Z,15.1
2022-10-18T07:16:00.804Z,15.1
2022-10-18T07:17:01.388Z,15.1
2022-10-18T07:18:00.960Z,15.2
2022-10-18T07:19:01.555Z,15.2
2022-10-18T07:20:01.135Z,15.2
2022-10-18T07:21:01.706Z,15.2
2022-10-18T07:22:01.276Z,15.2
2022-10-18T07:23:00.847Z,15.3
2022-10-18T07:24:01.436Z,15.2
2022-10-18T07:25:01.008Z,15.3
2022-10-18T07:26:01.578Z,15.3
2022-10-18T07:27:01.147Z,15.3
2022-10-18T07:28:01.718Z,15.3
2022-10-18T07:29:01.344Z,15.3
2022-10-18T07:30:00.949Z,15.3
2022-10-18T07:31:03.623Z,15.3
2022-10-18T07:32:01.056Z,15.4
2022-10-18T07:33:01.629Z,15.4
2022-10-18T07:34:01.222Z,15.4
2022-10-18T07:35:00.921Z,15.4
2022-10-18T07:36:01.365Z,15.4
2022-10-18T07:37:00.939Z,15.4
2022-10-18T07:38:01.512Z,15.5
2022-10-18T07:39:01.101Z,15.4
2022-10-18T07:40:01.692Z,15.5
2022-10-18T07:41:01.268Z,15.4
2022-10-18T07:42:00.840Z,15.4
2022-10-18T07:43:04.132Z,15.4
2022-10-18T07:44:00.953Z,15.4
2022-10-18T07:45:01.552Z,15.4
2022-10-18T07:46:01.127Z,15.5
2022-10-18T07:47:01.724Z,15.6
2022-10-18T07:48:01.298Z,15.6
2022-10-18T07:49:00.879Z,15.6
2022-10-18T07:50:01.470Z,15.6
2022-10-18T07:51:01.046Z,15.7
2022-10-18T07:52:01.622Z,15.7
2022-10-18T07:53:01.198Z,15.7
2022-10-18T07:54:01.775Z,15.7
2022-10-18T07:55:01.387Z,15.8
2022-10-18T07:56:02.287Z,15.8
2022-10-18T07:57:01.734Z,15.9
2022-10-18T07:58:01.201Z,15.9
2022-10-18T07:59:01.772Z,15.8
2022-10-18T08:00:01.345Z,15.8
2022-10-18T08:01:00.935Z,15.9
2022-10-18T08:02:01.569Z,16
2022-10-18T08:03:01.167Z,16
2022-10-18T08:04:06.283Z,16
2022-10-18T08:05:01.262Z,16
2022-10-18T08:06:00.854Z,16
2022-10-18T08:07:01.408Z,16
2022-10-18T08:08:03.000Z,15.9
2022-10-18T08:09:01.519Z,15.9
2022-10-18T08:10:01.096Z,15.9
2022-10-18T08:11:01.692Z,15.9
2022-10-18T08:12:01.276Z,15.9
2022-10-18T08:13:00.847Z,15.8
2022-10-18T08:14:01.425Z,15.8
2022-10-18T08:15:00.999Z,15.8
2022-10-18T08:16:01.590Z,15.8
2022-10-18T08:17:01.169Z,15.8
2022-10-18T08:18:01.757Z,15.8
2022-10-18T08:19:01.356Z,15.8
2022-10-18T08:20:11.273Z,15.8
2022-10-18T08:21:01.469Z,15.8
2022-10-18T08:22:01.063Z,15.7
2022-10-18T08:23:01.616Z,15.8
2022-10-18T08:24:01.190Z,15.8
2022-10-18T08:25:01.764Z,15.8
2022-10-18T08:26:01.359Z,15.8
2022-10-18T08:27:00.961Z,15.7
2022-10-18T08:28:01.548Z,15.8
2022-10-18T08:29:17.865Z,15.7
2022-10-18T08:30:01.740Z,15.8
2022-10-18T08:31:01.376Z,15.7
2022-10-18T08:32:00.954Z,15.7
2022-10-18T08:33:01.534Z,15.7
2022-10-18T08:34:01.107Z,15.6
2022-10-18T08:35:03.193Z,15.6
2022-10-18T08:36:01.219Z,15.6
2022-10-18T08:37:00.809Z,15.7
2022-10-18T08:38:01.370Z,15.7
2022-10-18T08:39:00.964Z,15.8
2022-10-18T08:40:01.535Z,15.7
2022-10-18T08:41:01.122Z,15.8
2022-10-18T08:42:01.699Z,15.7
2022-10-18T08:43:01.293Z,15.7
2022-10-18T08:44:02.115Z,15.7
2022-10-18T08:45:04.952Z,15.6
2022-10-18T08:46:00.962Z,15.6
2022-10-18T08:47:01.536Z,15.6
2022-10-18T08:48:01.110Z,15.6
2022-10-18T08:49:01.706Z,15.5
2022-10-18T08:50:01.280Z,15.6
2022-10-18T08:51:00.882Z,15.6
2022-10-18T08:52:01.441Z,15.6
2022-10-18T08:53:01.031Z,15.7
2022-10-18T08:54:01.627Z,15.7
2022-10-18T08:55:01.200Z,15.7
2022-10-18T08:56:01.789Z,15.8
2022-10-18T08:57:01.365Z,15.8
2022-10-18T08:58:00.937Z,15.8
2022-10-18T08:59:01.531Z,15.8
2022-10-18T09:00:01.106Z,15.7
2022-10-18T09:01:01.689Z,15.7
2022-10-18T09:02:01.266Z,15.8
2022-10-18T09:03:00.936Z,15.9
2022-10-18T09:04:01.429Z,16
2022-10-18T09:05:01.004Z,16
2022-10-18T09:06:01.576Z,16
2022-10-18T09:07:01.236Z,16
2022-10-18T09:08:01.746Z,16.1
2022-10-18T09:09:01.339Z,16.1
2022-10-18T09:10:00.918Z,16.3
2022-10-18T09:11:01.493Z,16.3
2022-10-18T09:12:01.964Z,16.5
2022-10-18T09:13:00.900Z,16.5
2022-10-18T09:14:01.487Z,16.6
2022-10-18T09:15:00.896Z,16.6
2022-10-18T09:16:01.472Z,16.7
2022-10-18T09:17:01.057Z,16.8
2022-10-18T09:18:01.633Z,16.7
2022-10-18T09:19:01.224Z,16.7
2022-10-18T09:21:01.355Z,16.6
2022-10-18T09:22:00.931Z,16.5
2022-10-18T09:23:01.533Z,16.4
2022-10-18T09:24:01.126Z,16.4
2022-10-18T09:25:01.695Z,16.2
2022-10-18T09:26:01.270Z,16.1
2022-10-18T09:27:00.844Z,16
2022-10-18T09:28:01.419Z,16
2022-10-18T09:29:01.143Z,15.9
2022-10-18T09:30:01.591Z,15.8
2022-10-18T09:31:01.182Z,15.8
2022-10-18T09:32:01.752Z,15.8
2022-10-18T09:33:01.326Z,15.8
2022-10-18T09:34:00.915Z,15.9
2022-10-18T09:35:01.498Z,15.9
2022-10-18T09:36:01.069Z,16.1
2022-10-18T09:37:01.646Z,16.2
2022-10-18T09:38:01.221Z,16.3
2022-10-18T09:39:00.816Z,16.4
2022-10-18T09:40:01.394Z,16.6
2022-10-18T09:41:00.970Z,16.6
2022-10-18T09:42:01.544Z,16.7
2022-10-18T09:43:01.116Z,16.7
2022-10-18T09:44:01.706Z,16.7
2022-10-18T09:45:01.302Z,16.7
2022-10-18T09:46:00.868Z,16.9
2022-10-18T09:47:01.440Z,16.9
2022-10-18T09:48:01.017Z,16.9
2022-10-18T09:49:01.591Z,17
2022-10-18T09:50:01.187Z,17.2
2022-10-18T09:51:01.748Z,17.2
2022-10-18T09:52:01.322Z,17.2
2022-10-18T09:53:00.898Z,17.2
2022-10-18T09:54:01.474Z,17.3
2022-10-18T09:55:01.088Z,17.3
2022-10-18T09:56:01.626Z,17.4
2022-10-18T09:57:01.198Z,17.5
2022-10-18T09:58:01.770Z,17.6
2022-10-18T09:59:01.342Z,17.6
2022-10-18T10:00:00.931Z,17.5
2022-10-18T10:01:01.517Z,17.4
2022-10-18T10:02:01.148Z,17.6
2022-10-18T10:03:01.739Z,17.7
2022-10-18T10:04:01.315Z,17.8
2022-10-18T10:05:00.966Z,17.8
2022-10-18T10:06:01.473Z,17.9
2022-10-18T10:07:01.048Z,17.9
2022-10-18T10:08:01.640Z,18
2022-10-18T10:09:01.216Z,18
2022-10-18T10:10:00.791Z,17.9
2022-10-18T10:11:01.394Z,17.8
2022-10-18T10:12:00.971Z,17.8
2022-10-18T10:13:01.557Z,17.7
2022-10-18T10:14:01.132Z,17.6
2022-10-18T10:15:01.706Z,17.4
2022-10-18T10:16:01.294Z,17.4
2022-10-18T10:17:00.867Z,17.5
2022-10-18T10:18:01.441Z,17.5
2022-10-18T10:19:01.018Z,17.5
2022-10-18T10:20:01.597Z,17.4
2022-10-18T10:21:01.254Z,17.4
2022-10-18T10:22:00.825Z,17.3
2022-10-18T10:23:01.400Z,17.4
2022-10-18T10:24:00.972Z,17.3
2022-10-18T10:25:01.552Z,17.3
2022-10-18T10:26:01.146Z,17.2
2022-10-18T10:27:01.765Z,17.2
2022-10-18T10:28:01.358Z,17.2
2022-10-18T10:29:00.977Z,17.2
2022-10-18T10:30:05.951Z,17.1
2022-10-18T10:31:01.051Z,17.1
2022-10-18T10:32:01.642Z,17.3
2022-10-18T10:33:01.216Z,17.4
2022-10-18T10:34:00.791Z,17.4
2022-10-18T10:35:01.362Z,17.4
2022-10-18T10:36:00.954Z,17.4
2022-10-18T10:37:01.525Z,17.4
2022-10-18T10:38:01.119Z,17.4
2022-10-18T10:39:01.688Z,17.4
2022-10-18T10:40:21.158Z,17.4
2022-10-18T10:41:00.799Z,17.3
2022-10-18T10:42:01.376Z,17.6
2022-10-18T10:43:08.692Z,17.6
2022-10-18T10:44:01.509Z,17.7
2022-10-18T10:45:01.098Z,17.7
2022-10-18T10:46:01.671Z,17.7
2022-10-18T10:47:01.258Z,17.7
2022-10-18T10:48:00.838Z,17.6
2022-10-18T10:49:27.751Z,17.5
2022-10-18T10:50:00.940Z,17.5
2022-10-18T10:51:01.518Z,17.5
2022-10-18T10:52:09.190Z,17.6
2022-10-18T10:53:01.647Z,17.8
2022-10-18T10:54:01.223Z,17.9
2022-10-18T10:55:06.034Z,18
2022-10-18T10:56:01.331Z,18.1
2022-10-18T10:57:00.917Z,18.2
2022-10-18T10:58:01.506Z,18.1
2022-10-18T10:59:01.201Z,17.9
2022-10-18T11:00:01.663Z,17.8
2022-10-18T11:01:01.256Z,17.6
2022-10-18T11:02:00.827Z,17.6
2022-10-18T11:03:06.134Z,17.6
2022-10-18T11:04:00.997Z,17.5
2022-10-18T11:05:01.619Z,17.5
2022-10-18T11:06:01.275Z,17.5
2022-10-18T11:07:01.767Z,17.5
2022-10-18T11:08:01.344Z,17.6
2022-10-18T11:09:00.915Z,17.5
2022-10-18T11:10:01.505Z,17.6
2022-10-18T11:11:01.077Z,17.6
2022-10-18T11:12:01.650Z,17.6
2022-10-18T11:13:01.224Z,17.7
2022-10-18T11:14:20.860Z,17.7
2022-10-18T11:15:01.374Z,17.7
2022-10-18T11:16:00.946Z,17.7
2022-10-18T11:17:04.333Z,17.8
2022-10-18T11:18:01.054Z,17.9
2022-10-18T11:19:01.626Z,18
2022-10-18T11:20:01.213Z,18.1
2022-10-18T11:21:01.799Z,18.1
2022-10-18T11:22:01.372Z,18.2
2022-10-18T11:23:00.950Z,18.2
2022-10-18T11:24:01.525Z,18.3
2022-10-18T11:25:01.101Z,18.5
2022-10-18T11:26:01.687Z,18.7
2022-10-18T11:27:01.260Z,18.8
2022-10-18T11:28:00.835Z,18.8
2022-10-18T11:29:01.438Z,18.7
2022-10-18T11:30:01.020Z,18.6
2022-10-18T11:31:01.634Z,18.4
2022-10-18T11:32:01.207Z,18.3
2022-10-18T11:33:01.782Z,18.2
2022-10-18T11:34:09.050Z,18.1
2022-10-18T11:35:00.893Z,18
2022-10-18T11:36:03.748Z,18
2022-10-18T11:37:26.223Z,18
2022-10-18T11:38:01.558Z,17.9
2022-10-18T11:39:01.131Z,17.9
2022-10-18T11:40:01.706Z,17.8
2022-10-18T11:41:01.300Z,17.7
2022-10-18T11:42:00.866Z,17.6
2022-10-18T11:43:01.454Z,17.8
2022-10-18T11:44:02.918Z,17.9
2022-10-18T11:45:01.566Z,17.9
2022-10-18T11:46:01.155Z,18.1
2022-10-18T11:47:01.766Z,18.1
2022-10-18T11:48:01.337Z,18
2022-10-18T11:49:00.911Z,17.9
2022-10-18T11:50:01.485Z,17.9
2022-10-18T11:51:01.074Z,17.9
2022-10-18T11:52:08.133Z,18
2022-10-18T11:53:01.203Z,18.1
2022-10-18T11:54:01.776Z,18.2
2022-10-18T11:55:01.350Z,18.1
2022-10-18T11:56:00.927Z,18.2
2022-10-18T11:57:01.515Z,18.3
2022-10-18T11:58:01.106Z,18.3
2022-10-18T11:59:01.676Z,18.3
2022-10-18T12:00:01.250Z,18.1
2022-10-18T12:01:00.824Z,18.1
2022-10-18T12:02:01.399Z,18.2
2022-10-18T12:03:01.082Z,18.3
2022-10-18T12:04:01.547Z,18.3
2022-10-18T12:06:01.688Z,18.3
2022-10-18T12:07:01.262Z,18.2
2022-10-18T12:08:00.852Z,18.3
2022-10-18T12:09:01.420Z,18.4
2022-10-18T12:10:00.994Z,18.5
2022-10-18T12:11:05.984Z,18.5
2022-10-18T12:12:01.105Z,18.3
2022-10-18T12:13:01.695Z,18.3
2022-10-18T12:14:01.269Z,18.4
2022-10-18T12:15:00.844Z,18.4
2022-10-18T12:16:01.416Z,18.3
2022-10-18T12:17:20.620Z,18.3
2022-10-18T12:18:01.582Z,18.4
2022-10-18T12:19:01.193Z,18.4
2022-10-18T12:20:01.757Z,18.6
2022-10-18T12:21:01.328Z,18.6
2022-10-18T12:22:00.999Z,18.7
2022-10-18T12:23:01.590Z,18.7
2022-10-18T12:24:01.181Z,18.7
2022-10-18T12:25:01.745Z,18.8
2022-10-18T12:26:01.320Z,18.8
2022-10-18T12:27:00.898Z,18.8
2022-10-18T12:29:01.089Z,18.7
2022-10-18T12:30:01.638Z,18.7
2022-10-18T12:31:01.224Z,18.7
2022-10-18T12:32:01.810Z,18.7
2022-10-18T12:33:16.712Z,18.7
2022-10-18T12:34:00.933Z,18.7
2022-10-18T12:35:01.532Z,18.7
2022-10-18T12:36:01.107Z,18.7
2022-10-18T12:37:01.679Z,18.6
2022-10-18T12:38:01.253Z,18.7
2022-10-18T12:39:00.841Z,18.8
2022-10-18T12:40:11.336Z,18.8
2022-10-18T12:41:00.948Z,18.8
2022-10-18T12:42:01.523Z,18.8
2022-10-18T12:43:01.101Z,18.6
2022-10-18T12:44:01.701Z,18.6
2022-10-18T12:45:01.274Z,18.7
2022-10-18T12:46:00.845Z,18.7
2022-10-18T12:47:01.419Z,18.6
2022-10-18T12:48:00.993Z,18.7
2022-10-18T12:49:01.583Z,18.8
2022-10-18T12:50:01.160Z,18.8
2022-10-18T12:51:01.762Z,18.9
2022-10-18T12:52:01.335Z,18.8
2022-10-18T12:53:00.908Z,18.8
2022-10-18T12:54:01.500Z,19
2022-10-18T12:55:01.073Z,18.9
2022-10-18T12:56:01.663Z,18.9
2022-10-18T12:57:01.242Z,18.9
2022-10-18T12:58:00.815Z,18.8
2022-10-18T12:59:01.405Z,18.9
2022-10-18T13:00:00.976Z,19.1
2022-10-18T13:01:01.631Z,19.2
2022-10-18T13:02:01.244Z,19.1
2022-10-18T13:03:01.787Z,19.1
2022-10-18T13:04:01.377Z,19.1
2022-10-18T13:05:01.081Z,19.1
2022-10-18T13:06:04.212Z,19.2
2022-10-18T13:07:01.124Z,19.1
2022-10-18T13:08:01.696Z,19.1
2022-10-18T13:09:01.279Z,19.2
2022-10-18T13:10:00.860Z,19.2
2022-10-18T13:11:01.439Z,19.3
2022-10-18T13:12:02.000Z,19.3
2022-10-18T13:13:08.597Z,19.3
2022-10-18T13:14:01.342Z,19.2
2022-10-18T13:15:07.209Z,19.2
2022-10-18T13:16:01.396Z,19.2
2022-10-18T13:17:00.968Z,19
2022-10-18T13:18:01.548Z,19
2022-10-18T13:19:01.136Z,18.9
2022-10-18T13:20:24.393Z,18.9
2022-10-18T13:21:01.267Z,19
2022-10-18T13:22:00.839Z,19.1
2022-10-18T13:23:01.534Z,19.1
2022-10-18T13:24:01.072Z,19.2
2022-10-18T13:25:01.663Z,19.4
2022-10-18T13:26:01.235Z,19.4
2022-10-18T13:28:01.340Z,19.2
2022-10-18T13:29:00.993Z,19.2
2022-10-18T13:30:01.507Z,19.2